createdAt,value
2023-03-18T00:01:21.198Z,56.78
2023-03-18T00:03:50.934Z,56.72
2023-03-18T00:06:21.856Z,56.85
2023-03-18T00:08:51.913Z,56.98
2023-03-18T00:11:21.907Z,56.98
2023-03-18T00:13:51.048Z,56.92
2023-03-18T00:16:21.060Z,57.16
2023-03-18T00:18:51.016Z,57.35
2023-03-18T00:21:20.256Z,57.22
2023-03-18T00:23:50.102Z,57.33
2023-03-18T00:26:20.180Z,57.35
2023-03-18T00:28:49.718Z,57.35
2023-03-18T00:31:19.213Z,57.52
2023-03-18T00:33:49.892Z,57.45
2023-03-18T00:36:24.998Z,57.36
2023-03-18T00:38:57.178Z,57.67
2023-03-18T00:41:28.003Z,57.78
2023-03-18T00:43:58.131Z,57.82
2023-03-18T00:46:30.255Z,57.89
2023-03-18T00:49:01.517Z,57.99
2023-03-18T00:51:34.498Z,57.86
2023-03-18T00:54:06.699Z,57.87
2023-03-18T00:56:38.060Z,58.00
2023-03-18T00:59:08.695Z,58.40
2023-03-18T01:01:38.832Z,58.33
2023-03-18T01:04:08.416Z,58.49
2023-03-18T01:06:39.564Z,58.33
2023-03-18T01:09:11.340Z,58.36
2023-03-18T01:11:41.504Z,58.64
2023-03-18T01:14:10.698Z,58.73
2023-03-18T01:16:40.300Z,58.96
2023-03-18T01:19:10.182Z,58.71
2023-03-18T01:21:39.554Z,58.78
2023-03-18T01:24:10.828Z,58.87
2023-03-18T01:26:40.153Z,58.92
2023-03-18T01:29:10.278Z,58.85
2023-03-18T01:31:39.575Z,58.88
2023-03-18T01:34:14.076Z,58.89
2023-03-18T01:36:47.481Z,59.03
2023-03-18T01:39:17.495Z,59.08
2023-03-18T01:41:48.354Z,59.16
2023-03-18T01:44:25.036Z,59.23
2023-03-18T01:46:56.261Z,59.29
2023-03-18T01:49:28.930Z,59.40
2023-03-18T01:52:00.721Z,59.55
2023-03-18T01:54:32.731Z,59.33
2023-03-18T01:57:02.422Z,59.51
2023-03-18T01:59:37.938Z,59.54
2023-03-18T02:02:09.924Z,59.59
2023-03-18T02:04:44.047Z,59.58
2023-03-18T02:07:17.547Z,59.80
2023-03-18T02:09:48.101Z,59.83
2023-03-18T02:12:27.352Z,59.91
2023-03-18T02:15:00.013Z,59.87
2023-03-18T02:17:33.296Z,60.13
2023-03-18T02:20:13.895Z,60.22
2023-03-18T02:22:46.893Z,60.10
2023-03-18T02:25:32.192Z,60.42
2023-03-18T02:28:04.273Z,60.29
2023-03-18T02:30:38.914Z,60.59
2023-03-18T02:33:09.454Z,60.62
2023-03-18T02:35:40.474Z,60.78
2023-03-18T02:38:09.809Z,60.37
2023-03-18T02:40:41.348Z,60.71
2023-03-18T02:43:25.238Z,60.71
2023-03-18T02:46:13.331Z,60.70
2023-03-18T02:48:45.506Z,61.02
2023-03-18T02:51:16.762Z,60.98
2023-03-18T02:53:47.349Z,61.05
2023-03-18T02:56:17.155Z,60.94
2023-03-18T02:58:46.526Z,60.87
2023-03-18T03:01:16.308Z,61.00
2023-03-18T03:03:45.809Z,60.81
2023-03-18T03:06:16.427Z,61.17
2023-03-18T03:08:45.955Z,61.22
2023-03-18T03:11:15.301Z,61.17
2023-03-18T03:13:46.206Z,61.14
2023-03-18T03:16:17.960Z,61.01
2023-03-18T03:18:47.297Z,61.28
2023-03-18T03:21:17.036Z,61.25
2023-03-18T03:23:47.204Z,61.07
2023-03-18T03:26:17.204Z,61.14
2023-03-18T03:28:47.293Z,61.16
2023-03-18T03:31:17.155Z,61.30
2023-03-18T03:33:47.227Z,61.36
2023-03-18T03:36:18.271Z,61.55
2023-03-18T03:38:47.795Z,61.51
2023-03-18T03:41:17.886Z,61.76
2023-03-18T03:43:47.015Z,61.69
2023-03-18T03:46:16.338Z,61.85
2023-03-18T03:48:47.364Z,61.85
2023-03-18T03:51:16.590Z,61.75
2023-03-18T03:53:46.123Z,61.59
2023-03-18T03:56:16.992Z,61.83
2023-03-18T03:58:46.266Z,61.68
2023-03-18T04:01:15.599Z,61.96
2023-03-18T04:03:45.672Z,61.71
2023-03-18T04:06:16.032Z,61.99
2023-03-18T04:08:51.084Z,62.00
2023-03-18T04:11:21.299Z,61.82
2023-03-18T04:13:50.646Z,61.85
2023-03-18T04:16:19.913Z,62.24
2023-03-18T04:18:49.151Z,62.33
2023-03-18T04:21:18.861Z,62.23
2023-03-18T04:23:52.639Z,62.05
2023-03-18T04:26:21.945Z,62.31
2023-03-18T04:28:51.668Z,62.26
2023-03-18T04:31:21.294Z,62.23
2023-03-18T04:33:50.608Z,62.48
2023-03-18T04:36:19.804Z,62.27
2023-03-18T04:38:49.904Z,62.58
2023-03-18T04:41:19.921Z,62.85
2023-03-18T04:43:49.082Z,62.28
2023-03-18T04:46:18.546Z,62.57
2023-03-18T04:48:48.251Z,62.45
2023-03-18T04:51:19.234Z,62.44
2023-03-18T04:53:48.966Z,62.57
2023-03-18T04:56:19.470Z,62.45
2023-03-18T04:58:52.189Z,62.38
2023-03-18T05:01:25.095Z,62.42
2023-03-18T05:03:54.834Z,62.40
2023-03-18T05:06:27.957Z,62.56
2023-03-18T05:09:00.932Z,62.39
2023-03-18T05:11:35.182Z,62.45
2023-03-18T05:14:24.873Z,62.44
2023-03-18T05:16:54.532Z,62.52
2023-03-18T05:19:24.795Z,62.35
2023-03-18T05:22:00.437Z,62.36
2023-03-18T05:24:30.345Z,62.30
2023-03-18T05:27:00.103Z,62.60
2023-03-18T05:29:34.145Z,62.61
2023-03-18T05:32:31.624Z,62.39
2023-03-18T05:35:05.714Z,62.36
2023-03-18T05:37:37.233Z,62.19
2023-03-18T05:40:12.209Z,62.19
2023-03-18T05:42:55.352Z,62.45
2023-03-18T05:45:27.054Z,62.13
2023-03-18T05:47:56.948Z,62.26
2023-03-18T05:50:34.977Z,62.10
2023-03-18T05:53:06.054Z,61.96
2023-03-18T05:55:38.032Z,62.20
2023-03-18T05:58:07.476Z,62.19
2023-03-18T06:00:37.587Z,61.92
2023-03-18T06:03:07.136Z,61.76
2023-03-18T06:05:38.368Z,61.62
2023-03-18T06:08:07.835Z,61.54
2023-03-18T06:10:39.740Z,61.55
2023-03-18T06:13:10.715Z,61.72
2023-03-18T06:15:39.918Z,61.54
2023-03-18T06:18:10.278Z,61.40
2023-03-18T06:20:39.483Z,61.38
2023-03-18T06:23:10.103Z,60.88
2023-03-18T06:25:41.254Z,61.15
2023-03-18T06:28:10.490Z,61.13
2023-03-18T06:30:40.087Z,60.94
2023-03-18T06:33:10.194Z,60.67
2023-03-18T06:35:39.940Z,60.55
2023-03-18T06:38:10.250Z,60.49
2023-03-18T06:40:40.499Z,60.26
2023-03-18T06:43:10.953Z,60.28
2023-03-18T06:45:42.938Z,60.23
2023-03-18T06:48:12.873Z,60.25
2023-03-18T06:50:44.110Z,60.03
2023-03-18T06:53:18.080Z,59.71
2023-03-18T06:55:49.865Z,59.89
2023-03-18T06:58:20.834Z,59.65
2023-03-18T07:00:58.826Z,59.58
2023-03-18T07:03:30.547Z,59.37
2023-03-18T07:06:00.621Z,59.06
2023-03-18T07:08:30.503Z,59.24
2023-03-18T07:11:00.450Z,59.47
2023-03-18T07:13:29.762Z,59.11
2023-03-18T07:15:59.802Z,58.96
2023-03-18T07:18:29.990Z,58.80
2023-03-18T07:20:59.161Z,58.86
2023-03-18T07:23:28.821Z,58.75
2023-03-18T07:25:59.679Z,58.81
2023-03-18T07:28:29.433Z,58.72
2023-03-18T07:30:58.604Z,58.83
2023-03-18T07:33:28.155Z,58.71
2023-03-18T07:35:57.726Z,58.64
2023-03-18T07:38:27.157Z,58.34
2023-03-18T07:40:57.422Z,58.48
2023-03-18T07:43:27.434Z,58.62
2023-03-18T07:45:56.619Z,58.68
2023-03-18T07:48:25.832Z,58.48
2023-03-18T07:50:55.407Z,58.46
2023-03-18T07:53:24.670Z,58.19
2023-03-18T07:55:54.376Z,57.79
2023-03-18T07:58:25.182Z,57.69
2023-03-18T08:00:54.566Z,57.38
2023-03-18T08:03:23.709Z,57.73
2023-03-18T08:05:53.457Z,57.40
2023-03-18T08:08:22.674Z,57.48
2023-03-18T08:10:53.105Z,57.32
2023-03-18T08:13:22.256Z,57.09
2023-03-18T08:15:52.347Z,57.14
2023-03-18T08:18:22.037Z,57.06
2023-03-18T08:20:52.492Z,56.79
2023-03-18T08:23:22.278Z,56.97
2023-03-18T08:25:52.020Z,57.08
2023-03-18T08:28:21.385Z,56.80
2023-03-18T08:30:56.177Z,56.65
2023-03-18T08:33:27.503Z,56.63
2023-03-18T08:35:57.426Z,56.43
2023-03-18T08:38:27.653Z,56.01
2023-03-18T08:40:57.431Z,56.14
2023-03-18T08:43:26.784Z,56.13
2023-03-18T08:45:58.104Z,56.01
2023-03-18T08:48:27.344Z,55.79
2023-03-18T08:50:57.097Z,55.48
2023-03-18T08:53:27.212Z,55.26
2023-03-18T08:55:56.419Z,55.27
2023-03-18T08:58:27.061Z,55.40
2023-03-18T09:00:57.517Z,55.18
2023-03-18T09:03:27.619Z,55.13
2023-03-18T09:05:58.015Z,55.23
2023-03-18T09:08:28.778Z,54.65
2023-03-18T09:10:59.299Z,54.23
2023-03-18T09:13:28.520Z,54.63
2023-03-18T09:15:57.728Z,54.66
2023-03-18T09:18:28.218Z,54.51
2023-03-18T09:20:57.350Z,54.70
2023-03-18T09:23:27.461Z,54.60
2023-03-18T09:25:56.671Z,54.61
2023-03-18T09:28:25.983Z,54.58
2023-03-18T09:30:56.178Z,54.64
2023-03-18T09:33:26.110Z,54.69
2023-03-18T09:35:55.557Z,54.82
2023-03-18T09:38:24.787Z,54.82
2023-03-18T09:41:06.480Z,54.78
2023-03-18T09:43:57.379Z,54.38
2023-03-18T09:46:37.141Z,54.63
2023-03-18T09:49:31.610Z,54.91
2023-03-18T09:52:14.267Z,54.60
2023-03-18T09:54:51.021Z,54.20
2023-03-18T09:57:24.244Z,53.65
2023-03-18T09:59:58.503Z,53.94
2023-03-18T10:02:35.330Z,54.24
2023-03-18T10:05:13.436Z,54.22
2023-03-18T10:07:46.740Z,54.34
2023-03-18T10:10:25.388Z,54.32
2023-03-18T10:13:06.446Z,54.48
2023-03-18T10:15:41.979Z,54.47
2023-03-18T10:18:18.606Z,54.27
2023-03-18T10:21:04.007Z,54.24
2023-03-18T10:23:48.995Z,54.06
2023-03-18T10:26:27.169Z,53.67
2023-03-18T10:29:16.366Z,53.22
2023-03-18T10:31:58.948Z,53.23
2023-03-18T10:34:35.130Z,53.56
2023-03-18T10:37:10.786Z,53.57
2023-03-18T10:39:40.896Z,53.51
2023-03-18T10:42:21.403Z,53.59
2023-03-18T10:44:53.241Z,53.29
2023-03-18T10:47:27.657Z,52.77
2023-03-18T10:50:06.388Z,55.09
2023-03-18T10:52:40.400Z,54.13
2023-03-18T10:55:16.564Z,53.60
2023-03-18T10:57:45.827Z,53.30
2023-03-18T11:00:27.397Z,53.32
2023-03-18T11:02:57.040Z,53.24
2023-03-18T11:05:28.779Z,53.26
2023-03-18T11:08:00.183Z,52.99
2023-03-18T11:10:34.030Z,52.78
2023-03-18T11:13:04.161Z,52.50
2023-03-18T11:15:39.520Z,52.37
2023-03-18T11:18:18.330Z,52.30
2023-03-18T11:20:58.892Z,52.60
2023-03-18T11:23:45.787Z,52.37
2023-03-18T11:26:22.243Z,52.27
2023-03-18T11:28:56.653Z,52.15
2023-03-18T11:31:27.499Z,51.28
2023-03-18T11:34:00.005Z,51.35
2023-03-18T11:36:32.552Z,51.41
2023-03-18T11:39:07.184Z,51.06
2023-03-18T11:41:39.830Z,50.84
2023-03-18T11:44:17.934Z,50.63
2023-03-18T11:46:51.612Z,50.43
2023-03-18T11:49:23.489Z,50.26
2023-03-18T11:52:01.845Z,50.17
2023-03-18T11:55:10.176Z,49.63
2023-03-18T11:57:50.591Z,49.40
2023-03-18T12:00:32.953Z,49.58
2023-03-18T12:03:38.432Z,49.65
2023-03-18T12:06:18.708Z,49.96
2023-03-18T12:09:01.024Z,50.21
2023-03-18T12:11:55.620Z,49.64
2023-03-18T12:14:34.647Z,49.40
2023-03-18T12:17:17.630Z,49.84
2023-03-18T12:20:06.674Z,49.88
2023-03-18T12:22:58.504Z,50.07
2023-03-18T12:25:50.422Z,49.97
2023-03-18T12:28:29.492Z,49.14
2023-03-18T12:31:24.275Z,48.67
2023-03-18T12:33:58.366Z,48.43
2023-03-18T12:36:43.882Z,48.74
2023-03-18T12:39:55.766Z,48.11
2023-03-18T12:42:37.451Z,48.38
2023-03-18T12:45:14.041Z,48.02
2023-03-18T12:47:48.367Z,48.16
2023-03-18T12:50:22.177Z,48.22
2023-03-18T12:52:57.213Z,48.41
2023-03-18T12:55:29.047Z,48.46
2023-03-18T12:58:02.973Z,48.13
2023-03-18T13:00:39.636Z,48.03
2023-03-18T13:03:28.155Z,48.34
2023-03-18T13:06:03.569Z,47.13
2023-03-18T13:08:53.506Z,47.58
2023-03-18T13:11:53.253Z,47.14
2023-03-18T13:14:29.975Z,47.27
2023-03-18T13:17:01.834Z,46.44
2023-03-18T13:19:34.380Z,46.90
2023-03-18T13:22:16.529Z,47.18
2023-03-18T13:25:05.567Z,47.04
2023-03-18T13:27:47.460Z,47.34
2023-03-18T13:30:29.297Z,47.71
2023-03-18T13:33:20.002Z,47.15
2023-03-18T13:36:17.173Z,47.09
2023-03-18T13:39:05.199Z,46.86
2023-03-18T13:41:49.635Z,46.93
2023-03-18T13:44:24.437Z,46.65
2023-03-18T13:47:03.035Z,46.88
2023-03-18T13:49:33.206Z,47.11
2023-03-18T13:52:03.890Z,46.76
2023-03-18T13:54:36.431Z,46.72
2023-03-18T13:57:32.732Z,47.09
2023-03-18T14:00:32.642Z,47.43
2023-03-18T14:03:21.228Z,47.23
2023-03-18T14:05:51.783Z,47.07
2023-03-18T14:08:46.589Z,46.93
2023-03-18T14:11:46.346Z,46.67
2023-03-18T14:14:54.355Z,46.69
2023-03-18T14:17:32.869Z,46.96
2023-03-18T14:20:20.773Z,47.26
2023-03-18T14:22:51.614Z,47.62
2023-03-18T14:25:34.614Z,47.50
2023-03-18T14:28:25.884Z,47.46
2023-03-18T14:31:13.281Z,47.25
2023-03-18T14:33:57.792Z,47.50
2023-03-18T14:36:45.308Z,47.47
2023-03-18T14:39:19.475Z,47.56
2023-03-18T14:41:53.319Z,47.19
2023-03-18T14:44:31.776Z,47.41
2023-03-18T14:47:07.156Z,47.97
2023-03-18T14:49:42.169Z,47.94
2023-03-18T14:52:25.306Z,48.02
2023-03-18T14:54:57.197Z,48.16
2023-03-18T14:57:26.561Z,47.94
2023-03-18T14:59:58.118Z,48.37
2023-03-18T15:02:30.710Z,48.09
2023-03-18T15:05:01.862Z,48.18
2023-03-18T15:07:35.193Z,48.18
2023-03-18T15:10:10.644Z,48.21
2023-03-18T15:12:40.205Z,48.09
2023-03-18T15:15:15.703Z,48.06
2023-03-18T15:17:48.969Z,48.06
2023-03-18T15:20:18.642Z,48.32
2023-03-18T15:22:48.525Z,48.43
2023-03-18T15:25:20.733Z,48.46
2023-03-18T15:27:54.391Z,48.59
2023-03-18T15:30:29.120Z,48.50
2023-03-18T15:33:04.887Z,48.66
2023-03-18T15:35:34.537Z,48.78
2023-03-18T15:38:13.381Z,48.81
2023-03-18T15:40:51.246Z,49.00
2023-03-18T15:43:29.738Z,49.08
2023-03-18T15:46:00.930Z,49.34
2023-03-18T15:48:35.533Z,49.57
2023-03-18T15:51:07.426Z,49.44
2023-03-18T15:53:44.068Z,49.42
2023-03-18T15:56:20.322Z,49.57
2023-03-18T15:58:58.588Z,49.56
2023-03-18T16:01:28.049Z,49.49
2023-03-18T16:03:57.526Z,49.38
2023-03-18T16:06:28.175Z,49.34
2023-03-18T16:08:57.327Z,49.26
2023-03-18T16:11:26.589Z,49.40
2023-03-18T16:13:56.031Z,49.38
2023-03-18T16:16:29.492Z,49.16
2023-03-18T16:18:59.314Z,49.18
2023-03-18T16:21:28.628Z,49.36
2023-03-18T16:23:57.801Z,49.55
2023-03-18T16:26:26.975Z,49.49
2023-03-18T16:28:56.360Z,49.30
2023-03-18T16:31:25.600Z,49.10
2023-03-18T16:33:55.672Z,49.01
2023-03-18T16:36:34.436Z,48.92
2023-03-18T16:39:16.456Z,49.00
2023-03-18T16:41:47.380Z,49.14
2023-03-18T16:44:18.844Z,49.07
2023-03-18T16:46:49.467Z,49.17
2023-03-18T16:49:22.605Z,49.27
2023-03-18T16:51:51.924Z,49.05
2023-03-18T16:54:23.364Z,49.31
2023-03-18T16:56:55.075Z,49.34
2023-03-18T16:59:29.019Z,49.46
2023-03-18T17:01:58.397Z,49.50
2023-03-18T17:04:29.445Z,49.41
2023-03-18T17:07:01.197Z,49.49
2023-03-18T17:09:31.306Z,49.51
2023-03-18T17:12:04.541Z,49.86
2023-03-18T17:14:39.184Z,49.81
2023-03-18T17:17:15.592Z,49.90
2023-03-18T17:19:45.620Z,49.89
2023-03-18T17:22:21.439Z,49.94
2023-03-18T17:24:51.392Z,50.17
2023-03-18T17:27:23.161Z,50.20
2023-03-18T17:29:53.136Z,50.36
2023-03-18T17:32:22.456Z,50.42
2023-03-18T17:34:53.195Z,50.47
2023-03-18T17:37:23.422Z,50.51
2023-03-18T17:39:52.839Z,50.73
2023-03-18T17:42:29.894Z,50.96
2023-03-18T17:45:05.596Z,50.89
2023-03-18T17:47:34.812Z,50.99
2023-03-18T17:50:04.957Z,51.05
2023-03-18T17:52:34.322Z,51.15
2023-03-18T17:55:09.479Z,51.41
2023-03-18T17:57:38.626Z,51.57
2023-03-18T18:00:20.839Z,51.84
2023-03-18T18:02:51.489Z,51.86
2023-03-18T18:05:22.605Z,52.04
2023-03-18T18:07:52.601Z,52.20
2023-03-18T18:10:21.737Z,52.43
2023-03-18T18:12:50.917Z,52.47
2023-03-18T18:15:24.926Z,52.54
2023-03-18T18:17:55.089Z,52.45
2023-03-18T18:20:24.290Z,52.55
2023-03-18T18:22:55.548Z,52.62
2023-03-18T18:25:29.140Z,52.68
2023-03-18T18:27:58.390Z,52.80
2023-03-18T18:30:28.076Z,52.87
2023-03-18T18:32:57.272Z,52.88
2023-03-18T18:35:26.428Z,52.92
2023-03-18T18:37:55.673Z,53.09
2023-03-18T18:40:24.877Z,53.23
2023-03-18T18:42:54.166Z,53.35
2023-03-18T18:45:23.580Z,53.19
2023-03-18T18:47:52.793Z,53.24
2023-03-18T18:50:26.519Z,53.44
2023-03-18T18:52:56.794Z,53.56
2023-03-18T18:55:26.640Z,53.64
2023-03-18T18:57:56.219Z,53.58
2023-03-18T19:00:25.747Z,53.80
2023-03-18T19:02:56.667Z,53.86
2023-03-18T19:05:26.018Z,53.99
2023-03-18T19:07:55.226Z,54.09
2023-03-18T19:10:24.806Z,54.05
2023-03-18T19:12:54.046Z,54.12
2023-03-18T19:15:23.473Z,54.35
2023-03-18T19:17:52.650Z,54.28
2023-03-18T19:20:30.230Z,54.51
2023-03-18T19:22:59.515Z,54.43
2023-03-18T19:25:29.145Z,54.28
2023-03-18T19:27:59.695Z,54.43
2023-03-18T19:30:28.965Z,54.36
2023-03-18T19:32:59.182Z,54.33
2023-03-18T19:35:28.665Z,54.55
2023-03-18T19:37:58.695Z,54.53
2023-03-18T19:40:31.300Z,54.63
2023-03-18T19:43:00.759Z,54.60
2023-03-18T19:45:30.279Z,54.66
2023-03-18T19:47:59.480Z,54.75
2023-03-18T19:50:28.807Z,54.79
2023-03-18T19:52:59.592Z,54.74
2023-03-18T19:55:29.075Z,54.76
2023-03-18T19:57:58.603Z,54.77
2023-03-18T20:00:28.658Z,54.99
2023-03-18T20:02:57.942Z,54.90
2023-03-18T20:05:27.418Z,55.01
2023-03-18T20:07:56.568Z,55.09
2023-03-18T20:10:25.795Z,55.25
2023-03-18T20:12:54.948Z,55.06
2023-03-18T20:15:26.555Z,55.31
2023-03-18T20:17:57.726Z,55.30
2023-03-18T20:20:29.728Z,55.51
2023-03-18T20:23:01.348Z,55.49
2023-03-18T20:25:35.892Z,55.60
2023-03-18T20:28:06.979Z,55.60
2023-03-18T20:30:38.576Z,55.75
2023-03-18T20:33:09.239Z,55.90
2023-03-18T20:35:41.041Z,55.79
2023-03-18T20:38:17.105Z,55.96
2023-03-18T20:40:47.765Z,56.07
2023-03-18T20:43:18.231Z,56.14
2023-03-18T20:45:48.086Z,56.31
2023-03-18T20:48:17.660Z,56.36
2023-03-18T20:50:47.037Z,56.32
2023-03-18T20:53:19.652Z,56.40
2023-03-18T20:55:49.534Z,56.36
2023-03-18T20:58:20.801Z,56.67
2023-03-18T21:00:51.749Z,56.63
2023-03-18T21:03:25.910Z,56.53
2023-03-18T21:05:56.774Z,56.79
2023-03-18T21:08:27.230Z,56.73
2023-03-18T21:11:01.376Z,56.72
2023-03-18T21:13:33.239Z,56.80
2023-03-18T21:16:03.752Z,56.74
2023-03-18T21:18:35.060Z,56.93
2023-03-18T21:21:04.463Z,57.05
2023-03-18T21:23:36.104Z,57.04
2023-03-18T21:26:05.712Z,57.07
2023-03-18T21:28:34.876Z,57.07
2023-03-18T21:31:04.876Z,57.20
2023-03-18T21:33:34.973Z,57.15
2023-03-18T21:36:05.959Z,57.16
2023-03-18T21:38:35.249Z,57.40
2023-03-18T21:41:11.476Z,57.46
2023-03-18T21:43:41.411Z,57.52
2023-03-18T21:46:14.435Z,57.70
2023-03-18T21:48:43.713Z,57.73
2023-03-18T21:51:37.525Z,57.73
2023-03-18T21:54:16.691Z,57.86
2023-03-18T21:56:46.000Z,57.73
2023-03-18T21:59:15.326Z,57.76
2023-03-18T22:01:44.616Z,58.12
2023-03-18T22:04:13.878Z,58.01
2023-03-18T22:06:43.090Z,58.10
2023-03-18T22:09:12.267Z,58.00
2023-03-18T22:11:41.426Z,58.14
2023-03-18T22:14:14.542Z,58.13
2023-03-18T22:16:43.708Z,58.12
2023-03-18T22:19:12.910Z,58.22
2023-03-18T22:21:42.105Z,58.06
2023-03-18T22:24:15.130Z,58.34
2023-03-18T22:26:44.338Z,58.46
2023-03-18T22:29:13.493Z,58.24
2023-03-18T22:31:42.823Z,58.36
2023-03-18T22:34:22.563Z,58.50
2023-03-18T22:36:52.082Z,58.39
2023-03-18T22:39:21.272Z,58.43
2023-03-18T22:41:50.383Z,58.35
2023-03-18T22:44:23.346Z,58.59
2023-03-18T22:46:52.586Z,58.50
2023-03-18T22:49:22.003Z,58.58
2023-03-18T22:51:51.129Z,58.52
2023-03-18T22:54:20.600Z,58.74
2023-03-18T22:56:49.932Z,58.78
2023-03-18T22:59:19.186Z,58.94
2023-03-18T23:01:48.509Z,58.86
2023-03-18T23:04:19.550Z,58.84
2023-03-18T23:06:48.911Z,58.80
2023-03-18T23:09:18.098Z,58.76
2023-03-18T23:11:47.223Z,58.87
2023-03-18T23:14:16.848Z,58.90
2023-03-18T23:16:46.013Z,58.99
2023-03-18T23:19:15.159Z,59.08
2023-03-18T23:21:44.336Z,59.05
2023-03-18T23:24:15.530Z,59.25
2023-03-18T23:26:44.866Z,59.15
2023-03-18T23:29:13.991Z,59.12
2023-03-18T23:31:44.397Z,59.38
2023-03-18T23:34:13.732Z,59.49
2023-03-18T23:36:43.503Z,59.51
2023-03-18T23:39:12.812Z,59.41
2023-03-18T23:41:41.996Z,59.53
2023-03-18T23:44:11.148Z,59.60
2023-03-18T23:46:41.660Z,59.71
2023-03-18T23:49:11.208Z,59.78
2023-03-18T23:51:40.351Z,59.78
2023-03-18T23:54:09.613Z,59.59
2023-03-18T23:56:38.795Z,59.84
2023-03-18T23:59:07.947Z,59.82
